createdAt,value
2018-11-12T00:01:12.446Z,43.27
2018-11-12T00:03:46.737Z,41.43
2018-11-12T00:06:20.981Z,41.40
2018-11-12T00:08:55.259Z,40.17
2018-11-12T00:11:29.546Z,42.27
2018-11-12T00:14:03.819Z,34.87
2018-11-12T00:16:38.130Z,41.90
2018-11-12T00:19:12.542Z,40.20
2018-11-12T00:21:46.845Z,34.57
2018-11-12T00:24:21.106Z,38.73
2018-11-12T00:26:55.405Z,38.67
2018-11-12T00:29:29.677Z,40.27
2018-11-12T00:32:03.947Z,36.63
2018-11-12T00:34:38.321Z,38.77
2018-11-12T00:37:12.583Z,43.87
2018-11-12T00:39:46.858Z,45.03
2018-11-12T00:42:21.106Z,46.13
2018-11-12T00:44:55.365Z,42.83
2018-11-12T00:47:29.646Z,44.10
2018-11-12T00:50:04.055Z,53.33
2018-11-12T00:52:38.420Z,55.97
2018-11-12T00:55:14.665Z,52.37
2018-11-12T00:57:48.937Z,51.53
2018-11-12T01:00:23.219Z,52.13
2018-11-12T01:02:57.489Z,44.67
2018-11-12T01:05:31.830Z,56.10
2018-11-12T01:08:06.115Z,54.73
2018-11-12T01:10:40.411Z,60.37
2018-11-12T01:13:14.743Z,57.43
2018-11-12T01:15:49.019Z,55.00
2018-11-12T01:18:23.257Z,55.10
2018-11-12T01:20:57.533Z,52.63
2018-11-12T01:23:31.774Z,58.97
2018-11-12T01:26:06.056Z,58.73
2018-11-12T01:28:40.378Z,60.13
2018-11-12T01:31:14.725Z,61.20
2018-11-12T01:33:49.037Z,70.67
2018-11-12T01:36:23.330Z,62.90
2018-11-12T01:38:57.601Z,65.23
2018-11-12T01:41:31.870Z,65.90
2018-11-12T01:44:06.185Z,63.60
2018-11-12T01:46:40.571Z,49.63
2018-11-12T01:49:14.861Z,49.63
2018-11-12T01:51:49.196Z,49.67
2018-11-12T01:54:23.437Z,55.20
2018-11-12T01:56:57.707Z,52.57
2018-11-12T01:59:31.999Z,59.83
2018-11-12T02:02:06.800Z,56.20
2018-11-12T02:04:41.068Z,63.23
2018-11-12T02:07:15.381Z,65.17
2018-11-12T02:09:49.652Z,60.47
2018-11-12T02:12:23.905Z,58.73
2018-11-12T02:14:58.189Z,60.13
2018-11-12T02:17:32.591Z,61.20
2018-11-12T02:20:08.526Z,59.13
2018-11-12T02:22:43.805Z,56.90
2018-11-12T02:25:18.626Z,61.10
2018-11-12T02:27:52.949Z,49.17
2018-11-12T02:30:32.479Z,54.43
2018-11-12T02:33:06.837Z,56.80
2018-11-12T02:35:41.015Z,57.00
2018-11-12T02:38:15.286Z,51.73
2018-11-12T02:40:49.549Z,53.70
2018-11-12T02:43:23.817Z,57.40
2018-11-12T02:45:58.086Z,57.27
2018-11-12T02:48:32.342Z,61.00
2018-11-12T02:51:06.934Z,60.10
2018-11-12T02:53:41.185Z,55.33
2018-11-12T02:56:15.482Z,57.93
2018-11-12T02:58:49.767Z,62.93
2018-11-12T03:01:24.070Z,56.07
2018-11-12T03:03:58.348Z,59.80
2018-11-12T03:06:32.626Z,56.13
2018-11-12T03:09:10.298Z,60.23
2018-11-12T03:11:44.595Z,58.13
2018-11-12T03:14:18.850Z,59.10
2018-11-12T03:16:53.182Z,52.17
2018-11-12T03:19:27.507Z,60.93
2018-11-12T03:22:01.754Z,56.80
2018-11-12T03:24:36.122Z,55.90
2018-11-12T03:27:10.398Z,61.67
2018-11-12T03:29:44.685Z,60.27
2018-11-12T03:32:18.949Z,58.80
2018-11-12T03:34:53.229Z,60.50
2018-11-12T03:37:27.491Z,63.40
2018-11-12T03:40:01.769Z,64.97
2018-11-12T03:42:36.041Z,63.67
2018-11-12T03:45:12.922Z,68.97
2018-11-12T03:47:47.179Z,69.03
2018-11-12T03:50:22.655Z,72.10
2018-11-12T03:52:56.976Z,72.30
2018-11-12T03:55:31.235Z,66.23
2018-11-12T03:58:06.054Z,65.53
2018-11-12T04:00:40.370Z,62.60
2018-11-12T04:03:14.702Z,69.70
2018-11-12T04:05:49.099Z,64.83
2018-11-12T04:08:23.389Z,64.10
2018-11-12T04:10:57.731Z,63.17
2018-11-12T04:13:32.074Z,62.77
2018-11-12T04:16:06.366Z,62.37
2018-11-12T04:18:40.652Z,66.53
2018-11-12T04:21:14.929Z,70.43
2018-11-12T04:23:49.187Z,64.87
2018-11-12T04:26:23.454Z,66.97
2018-11-12T04:28:57.689Z,74.13
2018-11-12T04:31:31.957Z,58.60
2018-11-12T04:34:06.583Z,61.67
2018-11-12T04:36:40.858Z,59.50
2018-11-12T04:39:15.173Z,65.10
2018-11-12T04:41:49.459Z,63.67
2018-11-12T04:44:23.741Z,59.53
2018-11-12T04:46:57.981Z,59.77
2018-11-12T04:49:32.247Z,68.17
2018-11-12T04:52:06.554Z,63.27
2018-11-12T04:54:40.831Z,59.80
2018-11-12T04:57:15.185Z,59.47
2018-11-12T04:59:49.467Z,58.90
2018-11-12T05:02:23.761Z,62.90
2018-11-12T05:04:58.603Z,54.13
2018-11-12T05:07:32.959Z,58.30
2018-11-12T05:10:09.552Z,61.57
2018-11-12T05:12:44.453Z,48.93
2018-11-12T05:15:20.017Z,40.90
2018-11-12T05:17:54.327Z,34.60
2018-11-12T05:20:29.687Z,32.90
2018-11-12T05:23:04.010Z,33.33
2018-11-12T05:25:38.423Z,28.03
2018-11-12T05:28:12.729Z,37.87
2018-11-12T05:30:47.109Z,39.57
2018-11-12T05:33:21.435Z,38.93
2018-11-12T05:35:55.757Z,37.20
2018-11-12T05:38:30.088Z,40.63
2018-11-12T05:41:04.471Z,38.20
2018-11-12T05:43:38.787Z,37.23
2018-11-12T05:46:13.154Z,34.23
2018-11-12T05:48:47.462Z,38.27
2018-11-12T05:51:21.852Z,39.70
2018-11-12T05:53:56.171Z,36.10
2018-11-12T05:56:30.482Z,40.67
2018-11-12T05:59:04.867Z,37.10
2018-11-12T06:01:39.143Z,37.53
2018-11-12T06:04:13.473Z,36.73
2018-11-12T06:06:47.788Z,33.73
2018-11-12T06:09:22.113Z,33.90
2018-11-12T06:11:56.397Z,33.87
2018-11-12T06:14:30.720Z,34.70
2018-11-12T06:17:05.190Z,32.50
2018-11-12T06:19:39.562Z,34.73
2018-11-12T06:22:13.868Z,31.47
2018-11-12T06:24:48.210Z,32.33
2018-11-12T06:27:22.481Z,32.20
2018-11-12T06:29:56.842Z,32.17
2018-11-12T06:32:31.178Z,31.47
2018-11-12T06:35:06.017Z,31.43
2018-11-12T06:37:40.430Z,31.17
2018-11-12T06:40:16.059Z,33.00
2018-11-12T06:42:50.454Z,31.10
2018-11-12T06:45:26.071Z,29.27
2018-11-12T06:48:00.742Z,29.23
2018-11-12T06:50:35.056Z,27.20
2018-11-12T06:53:09.407Z,25.50
2018-11-12T06:55:43.698Z,29.20
2018-11-12T06:58:18.005Z,27.67
2018-11-12T07:00:52.337Z,23.93
2018-11-12T07:03:26.573Z,25.30
2018-11-12T07:06:00.851Z,26.70
2018-11-12T07:08:35.111Z,23.63
2018-11-12T07:11:09.368Z,25.07
2018-11-12T07:13:43.642Z,22.73
2018-11-12T07:16:17.910Z,23.97
2018-11-12T07:18:52.619Z,25.10
2018-11-12T07:21:26.918Z,25.77
2018-11-12T07:24:01.195Z,22.10
2018-11-12T07:26:35.445Z,21.90
2018-11-12T07:29:09.737Z,21.27
2018-11-12T07:31:44.070Z,25.23
2018-11-12T07:34:18.405Z,24.20
2018-11-12T07:36:52.774Z,24.90
2018-11-12T07:39:27.026Z,26.90
2018-11-12T07:42:01.333Z,27.47
2018-11-12T07:44:35.577Z,26.63
2018-11-12T07:47:09.961Z,28.23
2018-11-12T07:49:44.206Z,30.37
2018-11-12T07:52:18.498Z,31.87
2018-11-12T07:54:52.882Z,32.80
2018-11-12T07:57:27.398Z,31.17
2018-11-12T08:00:01.809Z,26.83
2018-11-12T08:02:36.717Z,30.47
2018-11-12T08:05:11.710Z,28.50
2018-11-12T08:07:46.412Z,29.23
2018-11-12T08:10:20.697Z,29.63
2018-11-12T08:12:54.977Z,27.37
2018-11-12T08:15:29.241Z,29.53
2018-11-12T08:18:03.520Z,27.63
2018-11-12T08:20:37.821Z,30.23
2018-11-12T08:23:12.093Z,25.50
2018-11-12T08:25:46.346Z,31.17
2018-11-12T08:28:20.626Z,28.87
2018-11-12T08:30:54.879Z,26.40
2018-11-12T08:33:29.182Z,25.33
2018-11-12T08:36:03.475Z,29.10
2018-11-12T08:38:37.661Z,27.10
2018-11-12T08:41:12.000Z,30.17
2018-11-12T08:43:46.230Z,30.70
2018-11-12T08:46:20.487Z,27.80
2018-11-12T08:48:54.775Z,29.50
2018-11-12T08:51:29.081Z,32.67
2018-11-12T08:54:03.333Z,27.57
2018-11-12T08:56:37.645Z,28.53
2018-11-12T08:59:12.044Z,29.50
2018-11-12T09:01:46.235Z,26.90
2018-11-12T09:04:20.494Z,31.50
2018-11-12T09:06:54.748Z,29.47
2018-11-12T09:09:29.022Z,28.13
2018-11-12T09:12:03.287Z,28.30
2018-11-12T09:14:37.555Z,27.63
2018-11-12T09:17:11.799Z,23.90
2018-11-12T09:19:46.330Z,25.33
2018-11-12T09:22:20.589Z,29.33
2018-11-12T09:24:55.201Z,26.93
2018-11-12T09:27:29.523Z,29.97
2018-11-12T09:30:03.942Z,29.60
2018-11-12T09:32:38.627Z,23.73
2018-11-12T09:35:14.175Z,28.67
2018-11-12T09:37:49.529Z,29.20
2018-11-12T09:40:27.049Z,29.00
2018-11-12T09:43:01.312Z,29.83
2018-11-12T09:45:35.980Z,29.13
2018-11-12T09:48:10.226Z,31.10
2018-11-12T09:50:44.472Z,30.80
2018-11-12T09:53:18.731Z,29.23
2018-11-12T09:55:53.021Z,29.87
2018-11-12T09:58:27.311Z,29.80
2018-11-12T10:01:01.781Z,33.83
2018-11-12T10:03:37.400Z,27.10
2018-11-12T10:06:11.507Z,31.30
2018-11-12T10:08:46.343Z,30.70
2018-11-12T10:11:20.730Z,31.93
2018-11-12T10:13:55.252Z,33.07
2018-11-12T10:16:30.083Z,29.33
2018-11-12T10:19:01.686Z,31.17
2018-11-12T10:21:36.354Z,31.47
2018-11-12T10:24:10.724Z,36.73
2018-11-12T10:26:45.072Z,36.03
2018-11-12T10:29:19.435Z,31.33
2018-11-12T10:31:53.805Z,31.60
2018-11-12T10:34:28.109Z,31.17
2018-11-12T10:37:02.443Z,31.37
2018-11-12T10:39:36.815Z,31.67
2018-11-12T10:42:11.109Z,31.10
2018-11-12T10:44:45.415Z,27.77
2018-11-12T10:47:19.727Z,29.37
2018-11-12T10:49:54.788Z,29.53
2018-11-12T10:52:29.196Z,30.13
2018-11-12T10:55:05.367Z,27.97
2018-11-12T10:57:37.933Z,30.33
2018-11-12T11:00:26.642Z,27.77
2018-11-12T11:03:07.661Z,31.63
2018-11-12T11:05:43.106Z,29.43
2018-11-12T11:08:17.583Z,29.43
2018-11-12T11:10:51.873Z,27.50
2018-11-12T11:13:26.311Z,28.27
2018-11-12T11:16:00.671Z,23.77
2018-11-12T11:18:35.081Z,30.33
2018-11-12T11:21:09.589Z,28.37
2018-11-12T11:23:43.937Z,30.40
2018-11-12T11:26:18.295Z,29.60
2018-11-12T11:28:52.614Z,33.03
2018-11-12T11:31:27.065Z,28.60
2018-11-12T11:34:01.451Z,30.80
2018-11-12T11:36:35.881Z,27.77
2018-11-12T11:39:10.546Z,33.10
2018-11-12T11:41:44.871Z,31.93
2018-11-12T11:44:19.298Z,32.73
2018-11-12T11:46:53.641Z,35.77
2018-11-12T11:49:27.958Z,30.63
2018-11-12T11:52:02.262Z,34.13
2018-11-12T11:54:36.582Z,34.93
2018-11-12T11:57:11.019Z,34.30
2018-11-12T11:59:45.353Z,35.13
2018-11-12T12:02:19.751Z,29.87
2018-11-12T12:04:54.009Z,35.17
2018-11-12T12:07:28.317Z,37.07
2018-11-12T12:10:02.639Z,35.03
2018-11-12T12:12:36.961Z,33.13
2018-11-12T12:15:12.913Z,37.03
2018-11-12T12:17:47.273Z,36.90
2018-11-12T12:20:23.179Z,37.27
2018-11-12T12:22:57.454Z,39.00
2018-11-12T12:25:31.832Z,32.57
2018-11-12T12:28:06.323Z,37.83
2018-11-12T12:30:40.617Z,36.77
2018-11-12T12:33:14.944Z,36.43
2018-11-12T12:35:49.321Z,36.63
2018-11-12T12:38:23.608Z,37.30
2018-11-12T12:40:57.986Z,36.57
2018-11-12T12:43:32.319Z,41.27
2018-11-12T12:46:06.838Z,42.57
2018-11-12T12:48:41.221Z,42.60
2018-11-12T12:51:15.880Z,42.77
2018-11-12T12:56:33.595Z,41.80
2018-11-12T12:59:09.816Z,41.40
2018-11-12T13:04:48.852Z,36.87
2018-11-12T13:07:23.210Z,42.77
2018-11-12T13:10:05.989Z,40.23
2018-11-12T13:12:40.308Z,41.67
2018-11-12T13:15:16.112Z,41.47
2018-11-12T13:17:53.602Z,40.00
2018-11-12T13:20:35.123Z,42.80
2018-11-12T13:23:09.558Z,44.57
2018-11-12T13:26:05.729Z,43.43
2018-11-12T13:28:40.107Z,43.43
2018-11-12T13:31:14.433Z,45.87
2018-11-12T13:33:48.760Z,43.70
2018-11-12T13:36:23.125Z,50.93
2018-11-12T13:38:57.471Z,45.37
2018-11-12T13:41:31.827Z,39.70
2018-11-12T13:44:06.573Z,46.13
2018-11-12T13:46:46.109Z,42.60
2018-11-12T13:49:20.467Z,41.90
2018-11-12T13:51:54.898Z,45.97
2018-11-12T13:54:29.190Z,42.10
2018-11-12T13:57:03.559Z,42.40
2018-11-12T13:59:37.873Z,44.03
2018-11-12T14:02:12.213Z,42.13
2018-11-12T14:04:46.498Z,34.60
2018-11-12T14:07:20.788Z,36.37
2018-11-12T14:09:55.083Z,39.57
2018-11-12T14:12:29.374Z,35.40
2018-11-12T14:15:03.846Z,40.53
2018-11-12T14:17:38.625Z,40.53
2018-11-12T14:20:13.093Z,43.07
2018-11-12T14:22:47.425Z,40.80
2018-11-12T14:25:22.846Z,40.63
2018-11-12T14:27:57.959Z,42.50
2018-11-12T14:30:32.119Z,38.87
2018-11-12T14:33:06.510Z,42.60
2018-11-12T14:35:41.122Z,41.77
2018-11-12T14:38:15.214Z,43.47
2018-11-12T14:40:53.794Z,43.90
2018-11-12T14:43:28.206Z,44.00
2018-11-12T14:46:02.571Z,44.63
2018-11-12T14:48:36.928Z,43.23
2018-11-12T14:51:11.291Z,44.67
2018-11-12T14:53:45.571Z,41.57
2018-11-12T14:56:19.873Z,46.00
2018-11-12T14:58:54.206Z,36.70
2018-11-12T15:01:28.556Z,41.90
2018-11-12T15:04:02.860Z,34.43
2018-11-12T15:06:37.206Z,37.50
2018-11-12T15:09:12.222Z,36.73
2018-11-12T15:11:46.582Z,36.10
2018-11-12T15:14:20.873Z,37.43
2018-11-12T15:16:55.198Z,35.33
2018-11-12T15:19:29.546Z,42.83
2018-11-12T15:22:03.870Z,40.43
2018-11-12T15:24:38.178Z,40.30
2018-11-12T15:27:12.498Z,40.00
2018-11-12T15:29:46.798Z,40.33
2018-11-12T15:32:21.146Z,45.27
2018-11-12T15:34:55.438Z,40.37
2018-11-12T15:37:29.823Z,37.80
2018-11-12T15:40:04.237Z,37.87
2018-11-12T15:42:39.246Z,37.17
2018-11-12T15:45:17.025Z,39.73
2018-11-12T15:47:51.535Z,39.93
2018-11-12T15:50:27.666Z,35.27
2018-11-12T15:53:02.035Z,41.97
2018-11-12T15:55:36.370Z,39.90
2018-11-12T15:58:11.023Z,37.93
2018-11-12T16:00:45.378Z,36.47
2018-11-12T16:03:19.730Z,34.57
2018-11-12T16:05:54.133Z,40.33
2018-11-12T16:08:28.365Z,39.60
2018-11-12T16:11:02.743Z,38.83
2018-11-12T16:13:37.054Z,38.77
2018-11-12T16:16:11.340Z,35.47
2018-11-12T16:18:45.718Z,33.87
2018-11-12T16:21:20.026Z,38.47
2018-11-12T16:23:54.321Z,36.23
2018-11-12T16:26:28.641Z,34.47
2018-11-12T16:29:03.169Z,36.13
2018-11-12T16:31:37.446Z,38.63
2018-11-12T16:34:11.842Z,36.40
2018-11-12T16:36:46.209Z,31.10
2018-11-12T16:39:20.670Z,36.60
2018-11-12T16:41:54.957Z,37.20
2018-11-12T16:44:29.289Z,37.43
2018-11-12T16:47:03.697Z,37.23
2018-11-12T16:49:38.143Z,37.17
2018-11-12T16:52:12.453Z,32.70
2018-11-12T16:54:46.750Z,37.13
2018-11-12T16:57:21.047Z,36.50
2018-11-12T16:59:55.389Z,36.07
2018-11-12T17:02:29.770Z,35.40
2018-11-12T17:05:04.190Z,35.93
2018-11-12T17:07:38.594Z,32.93
2018-11-12T17:10:14.532Z,36.70
2018-11-12T17:12:49.174Z,36.10
2018-11-12T17:15:23.474Z,34.97
2018-11-12T17:17:57.822Z,34.03
2018-11-12T17:20:32.158Z,32.93
2018-11-12T17:23:06.509Z,38.10
2018-11-12T17:25:40.849Z,35.27
2018-11-12T17:28:15.156Z,32.57
2018-11-12T17:30:49.556Z,35.20
2018-11-12T17:33:23.861Z,32.27
2018-11-12T17:35:58.185Z,31.77
2018-11-12T17:38:32.498Z,34.87
2018-11-12T17:41:06.997Z,31.90
2018-11-12T17:43:41.379Z,33.30
2018-11-12T17:46:15.725Z,29.80
2018-11-12T17:48:50.043Z,30.63
2018-11-12T17:51:24.455Z,30.60
2018-11-12T17:53:58.815Z,32.67
2018-11-12T17:56:33.117Z,35.07
2018-11-12T17:59:07.869Z,32.90
2018-11-12T18:01:42.257Z,32.97
2018-11-12T18:04:16.543Z,35.40
2018-11-12T18:06:50.905Z,38.73
2018-11-12T18:09:25.211Z,36.47
2018-11-12T18:11:59.513Z,44.60
2018-11-12T18:14:33.841Z,36.33
2018-11-12T18:17:08.163Z,36.17
2018-11-12T18:19:42.461Z,44.53
2018-11-12T18:22:16.851Z,38.13
2018-11-12T18:24:51.143Z,34.27
2018-11-12T18:27:25.444Z,33.53
2018-11-12T18:29:59.812Z,34.27
2018-11-12T18:32:34.090Z,35.97
2018-11-12T18:35:08.727Z,33.83
2018-11-12T18:37:43.136Z,29.87
2018-11-12T18:40:18.989Z,31.93
2018-11-12T18:42:53.374Z,30.77
2018-11-12T18:45:28.265Z,31.43
2018-11-12T18:48:02.701Z,31.57
2018-11-12T18:50:37.285Z,31.37
2018-11-12T18:53:11.635Z,31.57
2018-11-12T18:55:45.921Z,37.43
2018-11-12T18:58:20.235Z,37.60
2018-11-12T19:00:54.585Z,34.53
2018-11-12T19:03:28.915Z,33.27
2018-11-12T19:06:03.279Z,32.23
2018-11-12T19:08:37.595Z,32.77
2018-11-12T19:11:11.905Z,33.00
2018-11-12T19:13:46.209Z,31.60
2018-11-12T19:16:20.517Z,34.53
2018-11-12T19:18:54.825Z,32.57
2018-11-12T19:21:29.153Z,29.73
2018-11-12T19:24:03.528Z,33.50
2018-11-12T19:26:37.819Z,34.30
2018-11-12T19:29:12.250Z,30.90
2018-11-12T19:31:46.566Z,28.50
2018-11-12T19:34:20.920Z,32.43
2018-11-12T19:36:55.255Z,30.57
2018-11-12T19:39:29.863Z,27.33
2018-11-12T19:42:04.226Z,28.83
2018-11-12T19:44:38.571Z,27.27
2018-11-12T19:47:12.907Z,28.60
2018-11-12T19:49:47.197Z,28.67
2018-11-12T19:52:21.562Z,28.97
2018-11-12T19:54:55.909Z,28.87
2018-11-12T19:57:30.258Z,28.80
2018-11-12T20:00:05.499Z,24.47
2018-11-12T20:02:40.430Z,27.93
2018-11-12T20:05:14.769Z,24.00
2018-11-12T20:07:49.085Z,23.63
2018-11-12T20:10:23.870Z,23.60
2018-11-12T20:12:58.301Z,22.87
2018-11-12T20:15:32.602Z,22.93
2018-11-12T20:18:07.137Z,22.37
2018-11-12T20:20:41.483Z,24.00
2018-11-12T20:23:15.886Z,25.53
2018-11-12T20:25:50.307Z,26.77
2018-11-12T20:28:24.593Z,23.63
2018-11-12T20:30:58.969Z,22.47
2018-11-12T20:33:33.299Z,22.17
2018-11-12T20:36:07.642Z,20.03
2018-11-12T20:38:42.020Z,22.07
2018-11-12T20:41:16.291Z,19.53
2018-11-12T20:43:50.854Z,21.47
2018-11-12T20:46:25.498Z,21.63
2018-11-12T20:48:59.807Z,24.43
2018-11-12T20:51:34.178Z,23.67
2018-11-12T20:54:08.569Z,23.03
2018-11-12T20:56:43.813Z,25.30
2018-11-12T20:59:18.254Z,23.70
2018-11-12T21:01:52.569Z,29.00
2018-11-12T21:04:27.182Z,22.30
2018-11-12T21:07:01.527Z,21.20
2018-11-12T21:09:35.911Z,23.37
2018-11-12T21:12:10.265Z,22.77
2018-11-12T21:14:44.593Z,25.53
2018-11-12T21:17:19.052Z,25.57
2018-11-12T21:19:53.418Z,25.00
2018-11-12T21:22:27.717Z,23.50
2018-11-12T21:25:02.103Z,25.90
2018-11-12T21:27:36.597Z,26.67
2018-11-12T21:30:13.969Z,27.70
2018-11-12T21:32:48.518Z,28.47
2018-11-12T21:35:22.908Z,27.33
2018-11-12T21:37:57.649Z,26.33
2018-11-12T21:40:31.947Z,27.90
2018-11-12T21:43:06.293Z,26.20
2018-11-12T21:45:40.570Z,27.43
2018-11-12T21:48:15.321Z,29.70
2018-11-12T21:50:49.653Z,27.07
2018-11-12T21:53:23.981Z,27.43
2018-11-12T21:55:58.295Z,29.50
2018-11-12T21:58:32.633Z,25.80
2018-11-12T22:01:06.936Z,25.70
2018-11-12T22:03:41.291Z,25.80
2018-11-12T22:06:15.590Z,27.47
2018-11-12T22:08:50.084Z,28.13
2018-11-12T22:11:24.390Z,25.97
2018-11-12T22:13:58.714Z,30.70
2018-11-12T22:16:33.139Z,25.27
2018-11-12T22:19:07.614Z,27.60
2018-11-12T22:21:41.857Z,25.27
2018-11-12T22:24:16.177Z,25.70
2018-11-12T22:26:50.465Z,24.73
2018-11-12T22:29:24.801Z,25.00
2018-11-12T22:31:59.164Z,27.47
2018-11-12T22:34:33.459Z,25.50
2018-11-12T22:37:07.766Z,28.13
2018-11-12T22:39:42.363Z,26.63
2018-11-12T22:42:16.714Z,27.70
2018-11-12T22:44:51.030Z,30.83
2018-11-12T22:47:25.382Z,30.63
2018-11-12T22:49:59.774Z,26.33
2018-11-12T22:52:34.074Z,24.83
2018-11-12T22:55:09.124Z,29.80
2018-11-12T22:57:43.532Z,25.97
2018-11-12T23:00:27.315Z,25.77
2018-11-12T23:03:01.605Z,25.20
2018-11-12T23:05:35.961Z,26.53
2018-11-12T23:08:10.730Z,24.57
2018-11-12T23:10:45.052Z,23.17
2018-11-12T23:13:19.365Z,23.00
2018-11-12T23:15:53.690Z,25.23
2018-11-12T23:18:27.994Z,23.50
2018-11-12T23:21:02.330Z,23.20
2018-11-12T23:23:36.633Z,22.53
2018-11-12T23:26:10.959Z,23.10
2018-11-12T23:28:45.306Z,20.93
2018-11-12T23:31:19.790Z,21.93
2018-11-12T23:33:54.225Z,21.20
2018-11-12T23:36:28.839Z,19.70
2018-11-12T23:39:03.246Z,18.73
2018-11-12T23:41:37.805Z,20.63
2018-11-12T23:44:12.085Z,20.10
2018-11-12T23:46:46.646Z,19.30
2018-11-12T23:49:21.005Z,19.50
2018-11-12T23:51:55.430Z,19.10
2018-11-12T23:54:29.738Z,19.70
2018-11-12T23:57:04.133Z,19.40
2018-11-12T23:59:38.419Z,20.27
